createdAt,value
2019-02-23T00:00:58.422Z,24.27
2019-02-23T00:03:46.372Z,25.23
2019-02-23T00:06:33.882Z,24.70
2019-02-23T00:09:21.615Z,26.53
2019-02-23T00:12:09.247Z,26.03
2019-02-23T00:14:56.977Z,25.43
2019-02-23T00:17:45.111Z,27.70
2019-02-23T00:20:32.129Z,27.27
2019-02-23T00:23:19.245Z,28.37
2019-02-23T00:26:07.213Z,28.50
2019-02-23T00:28:54.810Z,27.30
2019-02-23T00:31:42.333Z,27.47
2019-02-23T00:34:29.866Z,27.53
2019-02-23T00:37:17.387Z,27.10
2019-02-23T00:40:05.736Z,28.37
2019-02-23T00:42:53.054Z,26.70
2019-02-23T00:45:42.631Z,28.77
2019-02-23T00:48:30.257Z,28.33
2019-02-23T00:51:17.659Z,27.97
2019-02-23T00:54:05.220Z,28.07
2019-02-23T00:56:52.501Z,27.87
2019-02-23T00:59:39.953Z,27.73
2019-02-23T01:02:27.788Z,25.40
2019-02-23T01:05:15.213Z,27.80
2019-02-23T01:08:02.841Z,27.13
2019-02-23T01:10:57.685Z,27.03
2019-02-23T01:13:39.373Z,27.50
2019-02-23T01:16:26.698Z,27.37
2019-02-23T01:19:13.977Z,27.43
2019-02-23T01:22:01.701Z,26.03
2019-02-23T01:24:49.431Z,26.47
2019-02-23T01:27:36.754Z,25.80
2019-02-23T01:30:24.792Z,26.63
2019-02-23T01:33:12.524Z,25.27
2019-02-23T01:36:00.461Z,26.10
2019-02-23T01:38:47.987Z,24.20
2019-02-23T01:41:35.923Z,24.40
2019-02-23T01:44:23.455Z,23.87
2019-02-23T01:47:11.284Z,23.47
2019-02-23T01:49:59.371Z,23.30
2019-02-23T01:52:47.436Z,23.33
2019-02-23T01:55:35.295Z,23.60
2019-02-23T01:58:22.308Z,23.33
2019-02-23T02:01:09.941Z,22.03
2019-02-23T02:03:57.567Z,22.07
2019-02-23T02:06:45.299Z,22.30
2019-02-23T02:09:32.519Z,22.30
2019-02-23T02:12:30.489Z,22.77
2019-02-23T02:15:18.632Z,21.73
2019-02-23T02:18:06.361Z,22.47
2019-02-23T02:20:53.991Z,22.67
2019-02-23T02:23:41.416Z,22.17
2019-02-23T02:26:28.433Z,23.33
2019-02-23T02:29:16.058Z,21.63
2019-02-23T02:32:03.482Z,22.37
2019-02-23T02:34:50.604Z,21.73
2019-02-23T02:37:37.624Z,22.07
2019-02-23T02:40:25.140Z,21.97
2019-02-23T02:43:12.780Z,22.77
2019-02-23T02:46:00.505Z,22.47
2019-02-23T02:48:48.332Z,22.97
2019-02-23T02:51:35.566Z,21.83
2019-02-23T02:54:23.594Z,22.53
2019-02-23T02:57:11.221Z,23.13
2019-02-23T02:59:58.954Z,22.73
2019-02-23T03:02:46.374Z,22.70
2019-02-23T03:05:34.106Z,23.43
2019-02-23T03:08:21.719Z,22.40
2019-02-23T03:11:09.363Z,23.40
2019-02-23T03:13:56.996Z,23.40
2019-02-23T03:16:44.525Z,23.43
2019-02-23T03:19:31.949Z,23.10
2019-02-23T03:22:19.376Z,22.53
2019-02-23T03:25:07.400Z,23.53
2019-02-23T03:27:54.932Z,22.90
2019-02-23T03:30:42.869Z,23.03
2019-02-23T03:33:30.611Z,23.63
2019-02-23T03:36:17.680Z,23.10
2019-02-23T03:39:05.532Z,23.03
2019-02-23T03:41:52.974Z,23.40
2019-02-23T03:44:40.095Z,23.40
2019-02-23T03:47:27.516Z,23.43
2019-02-23T03:50:15.146Z,23.87
2019-02-23T03:53:02.056Z,24.00
2019-02-23T03:55:49.487Z,22.23
2019-02-23T03:58:37.006Z,23.17
2019-02-23T04:01:24.432Z,22.10
2019-02-23T04:04:12.014Z,23.23
2019-02-23T04:06:59.287Z,23.13
2019-02-23T04:09:46.907Z,23.50
2019-02-23T04:12:36.368Z,23.20
2019-02-23T04:15:23.580Z,22.67
2019-02-23T04:18:11.154Z,21.67
2019-02-23T04:21:02.051Z,22.33
2019-02-23T04:23:48.332Z,23.53
2019-02-23T04:26:35.751Z,23.70
2019-02-23T04:29:22.970Z,23.43
2019-02-23T04:32:10.497Z,23.70
2019-02-23T04:34:58.147Z,23.70
2019-02-23T04:37:45.805Z,24.60
2019-02-23T04:40:32.875Z,23.73
2019-02-23T04:43:20.199Z,23.67
2019-02-23T04:46:08.175Z,24.37
2019-02-23T04:48:55.349Z,24.17
2019-02-23T04:51:43.118Z,25.13
2019-02-23T04:54:32.450Z,24.63
2019-02-23T04:57:19.980Z,24.43
2019-02-23T05:00:10.988Z,24.27
2019-02-23T05:02:58.101Z,25.07
2019-02-23T05:05:45.842Z,24.30
2019-02-23T05:08:33.259Z,25.60
2019-02-23T05:11:20.887Z,26.60
2019-02-23T05:14:08.005Z,25.43
2019-02-23T05:16:55.837Z,24.77
2019-02-23T05:19:43.366Z,24.70
2019-02-23T05:22:30.384Z,25.57
2019-02-23T05:25:17.904Z,25.90
2019-02-23T05:28:05.224Z,25.27
2019-02-23T05:30:52.647Z,25.03
2019-02-23T05:33:40.280Z,25.53
2019-02-23T05:36:28.015Z,25.03
2019-02-23T05:39:17.786Z,24.33
2019-02-23T05:42:04.316Z,23.57
2019-02-23T05:44:52.021Z,23.70
2019-02-23T05:47:39.857Z,24.63
2019-02-23T05:50:27.280Z,24.37
2019-02-23T05:53:14.705Z,24.77
2019-02-23T05:56:02.229Z,23.80
2019-02-23T05:58:49.245Z,24.67
2019-02-23T06:01:36.772Z,24.23
2019-02-23T06:04:24.298Z,24.70
2019-02-23T06:07:12.027Z,25.30
2019-02-23T06:09:59.557Z,23.87
2019-02-23T06:12:47.284Z,24.87
2019-02-23T06:15:34.712Z,24.20
2019-02-23T06:18:22.378Z,26.33
2019-02-23T06:21:09.765Z,23.10
2019-02-23T06:23:57.496Z,22.97
2019-02-23T06:26:44.720Z,25.73
2019-02-23T06:29:31.830Z,30.53
2019-02-23T06:32:19.153Z,32.53
2019-02-23T06:35:08.664Z,35.93
2019-02-23T06:37:56.154Z,32.33
2019-02-23T06:40:43.880Z,26.67
2019-02-23T06:43:31.508Z,25.87
2019-02-23T06:46:18.633Z,23.77
2019-02-23T06:49:06.055Z,23.93
2019-02-23T06:52:03.773Z,24.03
2019-02-23T06:54:42.538Z,24.07
2019-02-23T06:57:30.064Z,25.20
2019-02-23T07:00:17.916Z,26.40
2019-02-23T07:03:05.323Z,26.57
2019-02-23T07:05:52.951Z,24.70
2019-02-23T07:08:40.479Z,25.87
2019-02-23T07:11:27.700Z,25.83
2019-02-23T07:14:15.222Z,24.87
2019-02-23T07:17:04.953Z,24.90
2019-02-23T07:19:51.913Z,26.23
2019-02-23T07:22:39.041Z,26.03
2019-02-23T07:25:26.863Z,26.33
2019-02-23T07:28:14.196Z,27.50
2019-02-23T07:31:01.562Z,27.90
2019-02-23T07:33:48.591Z,27.83
2019-02-23T07:36:36.356Z,26.00
2019-02-23T07:39:23.998Z,27.90
2019-02-23T07:42:11.415Z,25.87
2019-02-23T07:44:58.835Z,27.80
2019-02-23T07:47:46.628Z,25.40
2019-02-23T07:50:34.498Z,27.10
2019-02-23T07:53:21.926Z,28.10
2019-02-23T07:56:09.143Z,26.97
2019-02-23T07:58:56.366Z,26.23
2019-02-23T08:01:44.093Z,27.20
2019-02-23T08:04:32.337Z,25.80
2019-02-23T08:07:19.661Z,25.13
2019-02-23T08:10:11.711Z,26.47
2019-02-23T08:12:59.322Z,26.77
2019-02-23T08:15:46.436Z,25.50
2019-02-23T08:18:33.862Z,24.80
2019-02-23T08:21:21.489Z,25.83
2019-02-23T08:24:08.711Z,25.87
2019-02-23T08:26:56.337Z,25.43
2019-02-23T08:29:43.453Z,26.10
2019-02-23T08:32:31.391Z,26.07
2019-02-23T08:35:18.917Z,24.93
2019-02-23T08:38:06.544Z,25.53
2019-02-23T08:40:53.598Z,25.33
2019-02-23T08:43:41.188Z,25.77
2019-02-23T08:46:28.994Z,26.00
2019-02-23T08:49:16.501Z,26.20
2019-02-23T08:52:04.908Z,25.00
2019-02-23T08:54:52.326Z,26.70
2019-02-23T08:57:39.842Z,27.03
2019-02-23T09:00:27.883Z,25.80
2019-02-23T09:03:15.407Z,26.13
2019-02-23T09:06:04.557Z,25.23
2019-02-23T09:08:51.693Z,25.63
2019-02-23T09:11:39.392Z,26.03
2019-02-23T09:14:27.363Z,25.43
2019-02-23T09:17:14.371Z,25.73
2019-02-23T09:20:01.692Z,25.10
2019-02-23T09:22:59.487Z,24.93
2019-02-23T09:25:38.178Z,24.67
2019-02-23T09:28:25.508Z,25.70
2019-02-23T09:31:12.788Z,26.07
2019-02-23T09:34:00.246Z,25.50
2019-02-23T09:36:47.765Z,24.70
2019-02-23T09:39:35.304Z,24.80
2019-02-23T09:42:23.147Z,24.33
2019-02-23T09:45:12.291Z,24.43
2019-02-23T09:47:59.216Z,23.93
2019-02-23T09:50:46.531Z,23.97
2019-02-23T09:53:34.262Z,23.97
2019-02-23T09:56:21.994Z,23.00
2019-02-23T09:59:09.316Z,23.33
2019-02-23T10:01:57.151Z,23.50
2019-02-23T10:04:44.783Z,22.90
2019-02-23T10:07:32.406Z,22.07
2019-02-23T10:10:19.525Z,22.73
2019-02-23T10:13:07.363Z,24.90
2019-02-23T10:15:55.007Z,21.17
2019-02-23T10:18:41.927Z,20.53
2019-02-23T10:21:29.844Z,22.70
2019-02-23T10:24:17.256Z,22.67
2019-02-23T10:27:04.786Z,21.00
2019-02-23T10:29:52.313Z,20.53
2019-02-23T10:32:39.837Z,21.83
2019-02-23T10:35:27.363Z,22.80
2019-02-23T10:38:14.794Z,22.67
2019-02-23T10:41:02.417Z,23.57
2019-02-23T10:43:49.638Z,21.93
2019-02-23T10:46:36.752Z,21.20
2019-02-23T10:49:24.165Z,21.40
2019-02-23T10:52:11.913Z,21.70
2019-02-23T10:54:59.033Z,20.67
2019-02-23T10:57:46.569Z,20.90
2019-02-23T11:00:34.077Z,19.53
2019-02-23T11:03:21.603Z,19.57
2019-02-23T11:06:09.661Z,18.87
2019-02-23T11:08:57.170Z,20.13
2019-02-23T11:11:44.901Z,19.30
2019-02-23T11:14:32.016Z,18.03
2019-02-23T11:17:19.849Z,19.47
2019-02-23T11:20:09.250Z,16.80
2019-02-23T11:22:56.645Z,18.40
2019-02-23T11:25:44.273Z,13.87
2019-02-23T11:28:31.801Z,14.90
2019-02-23T11:31:19.635Z,14.23
2019-02-23T11:34:07.061Z,15.37
2019-02-23T11:36:54.485Z,13.67
2019-02-23T11:39:41.703Z,16.30
2019-02-23T11:42:29.498Z,16.60
2019-02-23T11:45:16.957Z,14.33
2019-02-23T11:48:04.896Z,17.10
2019-02-23T11:50:52.523Z,16.23
2019-02-23T11:53:40.254Z,15.80
2019-02-23T11:56:27.622Z,14.37
2019-02-23T11:59:15.220Z,14.53
2019-02-23T12:02:02.314Z,14.23
2019-02-23T12:04:50.008Z,15.50
2019-02-23T12:07:37.993Z,15.20
2019-02-23T12:10:25.516Z,16.70
2019-02-23T12:13:13.349Z,15.60
2019-02-23T12:16:00.881Z,16.23
2019-02-23T12:18:48.415Z,15.30
2019-02-23T12:21:35.424Z,14.70
2019-02-23T12:24:23.152Z,15.17
2019-02-23T12:27:10.572Z,14.90
2019-02-23T12:29:58.507Z,14.87
2019-02-23T12:32:46.242Z,15.00
2019-02-23T12:35:33.879Z,14.57
2019-02-23T12:38:21.500Z,15.40
2019-02-23T12:41:09.027Z,14.53
2019-02-23T12:43:56.552Z,15.30
2019-02-23T12:46:44.280Z,16.10
2019-02-23T12:49:31.809Z,15.20
2019-02-23T12:52:19.135Z,14.77
2019-02-23T12:55:09.148Z,14.40
2019-02-23T12:57:56.745Z,14.67
2019-02-23T13:00:44.329Z,13.87
2019-02-23T13:03:31.698Z,14.53
2019-02-23T13:06:19.322Z,13.97
2019-02-23T13:09:20.262Z,13.93
2019-02-23T13:12:13.626Z,13.53
2019-02-23T13:15:04.433Z,13.33
2019-02-23T13:17:55.358Z,13.90
2019-02-23T13:21:00.268Z,14.20
2019-02-23T13:24:07.558Z,14.20
2019-02-23T13:27:01.029Z,14.00
2019-02-23T13:30:04.018Z,14.30
2019-02-23T13:33:00.473Z,14.73
2019-02-23T13:36:10.311Z,14.57
2019-02-23T13:39:07.145Z,15.57
2019-02-23T13:42:12.698Z,14.57
2019-02-23T13:45:06.367Z,15.03
2019-02-23T13:48:17.653Z,14.53
2019-02-23T13:51:35.894Z,14.53
2019-02-23T13:54:44.514Z,14.20
2019-02-23T13:57:53.139Z,14.07
2019-02-23T14:00:58.379Z,13.93
2019-02-23T14:04:05.462Z,13.53
2019-02-23T14:06:59.368Z,12.77
2019-02-23T14:10:15.842Z,13.27
2019-02-23T14:13:27.539Z,12.63
2019-02-23T14:16:42.609Z,12.63
2019-02-23T14:19:54.556Z,11.80
2019-02-23T14:23:07.326Z,11.93
2019-02-23T14:26:19.243Z,11.83
2019-02-23T14:29:24.567Z,12.43
2019-02-23T14:32:21.310Z,11.97
2019-02-23T14:35:20.615Z,10.90
2019-02-23T14:38:11.214Z,11.37
2019-02-23T14:41:04.279Z,11.10
2019-02-23T14:44:15.759Z,11.63
2019-02-23T14:47:12.441Z,11.63
2019-02-23T14:50:19.686Z,11.57
2019-02-23T14:53:22.379Z,11.93
2019-02-23T14:56:18.563Z,12.40
2019-02-23T14:59:31.620Z,12.87
2019-02-23T15:02:25.495Z,13.67
2019-02-23T15:05:36.779Z,13.67
2019-02-23T15:08:30.038Z,13.47
2019-02-23T15:11:35.432Z,14.10
2019-02-23T15:14:43.647Z,13.47
2019-02-23T15:17:39.518Z,13.00
2019-02-23T15:20:54.284Z,13.67
2019-02-23T15:24:03.227Z,13.43
2019-02-23T15:27:03.026Z,14.17
2019-02-23T15:29:53.113Z,13.43
2019-02-23T15:33:17.149Z,13.20
2019-02-23T15:36:25.481Z,13.80
2019-02-23T15:39:27.688Z,13.97
2019-02-23T15:42:53.231Z,14.17
2019-02-23T15:45:49.742Z,14.67
2019-02-23T15:49:01.650Z,14.80
2019-02-23T15:51:49.074Z,14.20
2019-02-23T15:54:36.277Z,15.00
2019-02-23T15:57:23.596Z,15.77
2019-02-23T16:00:11.638Z,17.13
2019-02-23T16:02:58.962Z,16.30
2019-02-23T16:05:46.383Z,15.80
2019-02-23T16:08:33.916Z,16.27
2019-02-23T16:11:21.640Z,17.07
2019-02-23T16:14:08.893Z,16.70
2019-02-23T16:16:56.283Z,15.57
2019-02-23T16:19:43.913Z,16.87
2019-02-23T16:22:32.776Z,16.60
2019-02-23T16:25:19.827Z,16.50
2019-02-23T16:28:07.210Z,16.23
2019-02-23T16:30:54.737Z,16.40
2019-02-23T16:33:42.672Z,16.50
2019-02-23T16:36:30.099Z,16.17
2019-02-23T16:39:17.931Z,15.33
2019-02-23T16:42:05.357Z,15.93
2019-02-23T16:44:52.879Z,15.73
2019-02-23T16:47:40.611Z,15.77
2019-02-23T16:50:28.033Z,16.10
2019-02-23T16:53:15.875Z,15.30
2019-02-23T16:56:03.088Z,15.20
2019-02-23T16:58:50.512Z,15.03
2019-02-23T17:01:37.633Z,14.63
2019-02-23T17:04:25.068Z,15.13
2019-02-23T17:07:12.579Z,14.77
2019-02-23T17:10:00.638Z,14.27
2019-02-23T17:12:47.937Z,14.33
2019-02-23T17:15:35.261Z,15.37
2019-02-23T17:18:23.099Z,14.37
2019-02-23T17:21:10.058Z,14.97
2019-02-23T17:23:57.534Z,14.93
2019-02-23T17:26:44.863Z,14.77
2019-02-23T17:29:32.176Z,14.23
2019-02-23T17:32:19.804Z,15.30
2019-02-23T17:35:07.566Z,14.53
2019-02-23T17:37:55.275Z,14.37
2019-02-23T17:40:42.699Z,13.50
2019-02-23T17:43:29.706Z,14.50
2019-02-23T17:46:17.234Z,14.50
2019-02-23T17:49:04.764Z,13.87
2019-02-23T17:51:52.499Z,15.53
2019-02-23T17:54:40.230Z,15.17
2019-02-23T17:57:27.658Z,16.77
2019-02-23T18:00:16.812Z,16.37
2019-02-23T18:03:04.340Z,17.53
2019-02-23T18:05:52.171Z,18.23
2019-02-23T18:08:39.706Z,17.90
2019-02-23T18:11:27.123Z,18.00
2019-02-23T18:14:14.652Z,16.93
2019-02-23T18:17:02.175Z,16.37
2019-02-23T18:19:49.544Z,17.10
2019-02-23T18:22:36.975Z,16.10
2019-02-23T18:25:24.552Z,15.20
2019-02-23T18:28:12.181Z,15.13
2019-02-23T18:30:59.808Z,15.83
2019-02-23T18:33:47.438Z,15.37
2019-02-23T18:36:34.455Z,16.77
2019-02-23T18:39:21.876Z,16.90
2019-02-23T18:42:09.407Z,16.60
2019-02-23T18:44:57.235Z,18.03
2019-02-23T18:47:44.866Z,20.00
2019-02-23T18:50:32.495Z,20.30
2019-02-23T18:53:19.534Z,18.60
2019-02-23T18:56:07.443Z,18.37
2019-02-23T18:58:54.765Z,16.17
2019-02-23T19:01:42.499Z,16.63
2019-02-23T19:04:29.859Z,16.70
2019-02-23T19:07:17.139Z,17.20
2019-02-23T19:10:07.229Z,22.77
2019-02-23T19:12:54.447Z,20.73
2019-02-23T19:15:41.896Z,18.33
2019-02-23T19:18:29.509Z,17.70
2019-02-23T19:21:17.234Z,18.50
2019-02-23T19:24:04.842Z,18.80
2019-02-23T19:26:52.724Z,18.50
2019-02-23T19:29:40.528Z,20.07
2019-02-23T19:32:28.598Z,19.07
2019-02-23T19:35:15.890Z,19.50
2019-02-23T19:38:03.636Z,19.00
2019-02-23T19:40:50.942Z,18.63
2019-02-23T19:43:38.572Z,19.03
2019-02-23T19:46:26.710Z,19.83
2019-02-23T19:49:13.624Z,17.67
2019-02-23T19:52:01.155Z,19.60
2019-02-23T19:54:48.585Z,19.20
2019-02-23T19:57:36.205Z,19.10
2019-02-23T20:00:23.446Z,19.40
2019-02-23T20:03:11.049Z,18.37
2019-02-23T20:05:58.393Z,31.07
2019-02-23T20:08:45.801Z,20.57
2019-02-23T20:11:33.640Z,20.67
2019-02-23T20:14:21.464Z,20.97
2019-02-23T20:17:09.194Z,21.37
2019-02-23T20:19:56.622Z,18.83
2019-02-23T20:22:44.868Z,17.93
2019-02-23T20:25:32.390Z,18.80
2019-02-23T20:28:19.714Z,20.43
2019-02-23T20:31:07.240Z,21.03
2019-02-23T20:33:54.867Z,20.30
2019-02-23T20:36:42.861Z,19.90
2019-02-23T20:39:30.229Z,19.40
2019-02-23T20:42:18.062Z,19.13
2019-02-23T20:45:07.956Z,19.63
2019-02-23T20:47:55.407Z,20.57
2019-02-23T20:50:43.000Z,18.80
2019-02-23T20:53:30.726Z,18.87
2019-02-23T20:56:17.945Z,19.03
2019-02-23T20:59:05.371Z,18.83
2019-02-23T21:01:55.311Z,18.20
2019-02-23T21:04:42.570Z,18.70
2019-02-23T21:07:30.307Z,18.10
2019-02-23T21:10:18.037Z,17.80
2019-02-23T21:13:05.458Z,18.60
2019-02-23T21:15:52.988Z,18.47
2019-02-23T21:18:40.822Z,18.67
2019-02-23T21:21:28.557Z,18.43
2019-02-23T21:24:16.279Z,18.73
2019-02-23T21:27:03.807Z,20.70
2019-02-23T21:29:50.938Z,20.53
2019-02-23T21:32:38.748Z,20.03
2019-02-23T21:35:25.876Z,19.57
2019-02-23T21:38:13.510Z,17.90
2019-02-23T21:41:01.132Z,19.07
2019-02-23T21:43:48.147Z,18.40
2019-02-23T21:46:35.818Z,17.87
2019-02-23T21:49:23.714Z,19.63
2019-02-23T21:52:11.454Z,19.97
2019-02-23T21:54:58.778Z,19.63
2019-02-23T21:57:46.257Z,19.77
2019-02-23T22:00:33.921Z,19.90
2019-02-23T22:03:21.350Z,21.37
2019-02-23T22:06:08.667Z,20.90
2019-02-23T22:08:56.502Z,21.23
2019-02-23T22:11:44.136Z,19.87
2019-02-23T22:14:31.863Z,19.23
2019-02-23T22:17:19.084Z,20.07
2019-02-23T22:20:07.385Z,18.80
2019-02-23T22:22:54.953Z,19.10
2019-02-23T22:25:42.275Z,19.97
2019-02-23T22:28:29.706Z,19.90
2019-02-23T22:31:17.237Z,19.90
2019-02-23T22:34:04.801Z,20.27
2019-02-23T22:36:51.869Z,20.40
2019-02-23T22:39:40.520Z,20.17
2019-02-23T22:42:28.355Z,20.77
2019-02-23T22:45:16.187Z,20.47
2019-02-23T22:48:04.020Z,19.57
2019-02-23T22:50:51.650Z,19.97
2019-02-23T22:53:40.831Z,20.93
2019-02-23T22:56:28.138Z,19.33
2019-02-23T22:59:16.491Z,19.10
2019-02-23T23:02:04.115Z,19.20
2019-02-23T23:04:51.339Z,20.23
2019-02-23T23:07:38.447Z,19.87
2019-02-23T23:10:26.076Z,19.80
2019-02-23T23:13:13.658Z,19.93
2019-02-23T23:16:01.436Z,19.67
2019-02-23T23:18:48.600Z,20.17
2019-02-23T23:21:36.083Z,20.20
2019-02-23T23:24:24.014Z,19.23
2019-02-23T23:27:11.555Z,18.67
2019-02-23T23:29:58.568Z,19.23
2019-02-23T23:32:46.081Z,18.00
2019-02-23T23:35:33.710Z,17.83
2019-02-23T23:38:21.135Z,19.10
2019-02-23T23:41:08.660Z,17.83
2019-02-23T23:43:56.290Z,18.17
2019-02-23T23:46:44.982Z,17.67
2019-02-23T23:49:32.166Z,18.97
2019-02-23T23:52:19.485Z,18.33
2019-02-23T23:55:07.451Z,17.27
2019-02-23T23:57:58.200Z,17.40
